createdAt,value
2022-12-27T00:02:11.398Z,57
2022-12-27T00:22:09.334Z,57
2022-12-27T00:41:47.921Z,56
2022-12-27T01:02:53.051Z,56
2022-12-27T01:22:09.763Z,56
2022-12-27T01:42:31.817Z,55
2022-12-27T02:01:46.871Z,55
2022-12-27T02:21:48.090Z,55
2022-12-27T02:41:48.850Z,55
2022-12-27T03:01:47.907Z,55
2022-12-27T03:22:10.391Z,55
2022-12-27T03:42:09.908Z,55
2022-12-27T04:02:10.087Z,55
2022-12-27T04:22:10.439Z,55
2022-12-27T04:41:47.914Z,55
2022-12-27T05:21:49.479Z,55
2022-12-27T05:42:10.171Z,54
2022-12-27T06:01:48.733Z,54
2022-12-27T06:21:48.440Z,54
2022-12-27T06:41:48.505Z,54
2022-12-27T07:01:47.449Z,54
2022-12-27T07:21:47.752Z,54
2022-12-27T07:42:10.457Z,54
2022-12-27T08:01:48.227Z,56
2022-12-27T08:21:48.829Z,56
2022-12-27T08:41:47.973Z,57
2022-12-27T09:01:49.420Z,57
2022-12-27T09:22:09.787Z,58
2022-12-27T10:02:41.746Z,58
2022-12-27T10:21:48.093Z,58
2022-12-27T10:41:48.401Z,58
2022-12-27T11:02:15.576Z,58
2022-12-27T11:22:10.079Z,58
2022-12-27T11:42:09.668Z,59
2022-12-27T12:02:31.350Z,58
2022-12-27T12:21:49.361Z,58
2022-12-27T12:41:47.274Z,58
2022-12-27T13:02:32.670Z,58
2022-12-27T13:21:48.803Z,58
2022-12-27T13:41:48.396Z,58
2022-12-27T14:01:47.821Z,58
2022-12-27T14:21:47.553Z,58
2022-12-27T14:42:33.139Z,58
2022-12-27T15:01:48.060Z,58
2022-12-27T15:21:49.096Z,58
2022-12-27T15:41:47.528Z,57
2022-12-27T16:01:48.064Z,58
2022-12-27T16:21:47.447Z,58
2022-12-27T16:41:47.756Z,58
2022-12-27T17:01:48.997Z,57
2022-12-27T17:21:47.752Z,56
2022-12-27T17:42:09.297Z,57
2022-12-27T18:01:49.197Z,57
2022-12-27T18:22:09.536Z,57
2022-12-27T18:42:09.682Z,57
2022-12-27T19:01:47.971Z,63
2022-12-27T19:21:47.625Z,63
2022-12-27T19:41:47.695Z,61
2022-12-27T20:01:47.735Z,60
2022-12-27T20:21:48.534Z,61
2022-12-27T20:41:47.866Z,61
2022-12-27T21:02:10.309Z,60
2022-12-27T21:21:47.650Z,60
2022-12-27T21:42:10.124Z,59
2022-12-27T22:02:09.862Z,58
2022-12-27T22:21:57.609Z,58
2022-12-27T22:41:58.994Z,56
2022-12-27T23:02:18.825Z,56
2022-12-27T23:21:48.061Z,56
2022-12-27T23:41:48.616Z,55
